Terminal Aerodrome Forecast
Issued by NWS Tallahassee, FL

Home | Current Version | Previous Version | Text Only | Print | Product List | Glossary On
Versions: 1 2 3 4 5 6 7 8 9 10 11 12 13 14 15 16
542
FTUS42 KTAE 291120
TAFTLH
TAF
KTLH 291120Z 2912/3012 10005KT P6SM VCSH SCT020 BKN060 OVC120
      TEMPO 2912/2913 4SM RA BKN020
     FM291300 14006KT P6SM VCSH BKN020
     FM291900 18006KT P6SM VCTS BKN035CB
     FM300000 10003KT P6SM BKN070 OVC120=

USA.gov is the U.S. government's official web portal to all federal, state and local government web resources and services.